sensor_id;sensor_type;location;lat;lon;timestamp;pressure;altitude;pressure_sealevel;temperature;humidity
46476;BME280;53376;51.114;14.738;2022-09-23T00:13:06;98993.81;;;13.75;55.87
46476;BME280;53376;51.114;14.738;2022-09-23T00:15:37;98986.69;;;13.75;55.84
46476;BME280;53376;51.114;14.738;2022-09-23T00:18:17;98986.78;;;13.74;55.59
46476;BME280;53376;51.114;14.738;2022-09-23T00:20:44;98987.75;;;13.73;55.72
46476;BME280;53376;51.114;14.738;2022-09-23T00:23:24;98986.97;;;13.70;55.74
46476;BME280;53376;51.114;14.738;2022-09-23T00:39:32;98960.09;;;13.59;55.99
46476;BME280;53376;51.114;14.738;2022-09-23T00:42:13;98965.44;;;13.59;55.99
46476;BME280;53376;51.114;14.738;2022-09-23T00:44:51;98964.50;;;13.60;55.82
46476;BME280;53376;51.114;14.738;2022-09-23T00:47:34;98961.81;;;13.60;55.78
46476;BME280;53376;51.114;14.738;2022-09-23T00:50:20;98956.88;;;13.54;55.74
46476;BME280;53376;51.114;14.738;2022-09-23T00:53:06;98960.50;;;13.53;55.70
46476;BME280;53376;51.114;14.738;2022-09-23T01:05:58;98937.81;;;13.46;55.89
46476;BME280;53376;51.114;14.738;2022-09-23T01:08:39;98936.09;;;13.45;55.53
46476;BME280;53376;51.114;14.738;2022-09-23T01:11:41;98944.09;;;13.45;55.85
46476;BME280;53376;51.114;14.738;2022-09-23T01:14:35;98939.16;;;13.38;55.78
46476;BME280;53376;51.114;14.738;2022-09-23T01:17:30;98948.19;;;13.36;55.92
46476;BME280;53376;51.114;14.738;2022-09-23T01:30:47;98942.00;;;13.35;55.50
46476;BME280;53376;51.114;14.738;2022-09-23T01:33:40;98938.66;;;13.32;55.35
46476;BME280;53376;51.114;14.738;2022-09-23T01:36:36;98930.78;;;13.30;55.40
46476;BME280;53376;51.114;14.738;2022-09-23T01:39:19;98924.66;;;13.28;55.37
46476;BME280;53376;51.114;14.738;2022-09-23T01:42:08;98935.50;;;13.25;55.56
46476;BME280;53376;51.114;14.738;2022-09-23T01:44:50;98936.56;;;13.22;55.48
46476;BME280;53376;51.114;14.738;2022-09-23T01:47:38;98933.22;;;13.19;55.60
46476;BME280;53376;51.114;14.738;2022-09-23T01:57:22;98925.63;;;13.13;55.82
46476;BME280;53376;51.114;14.738;2022-09-23T02:00:12;98924.00;;;13.10;55.84
46476;BME280;53376;51.114;14.738;2022-09-23T02:02:55;98918.75;;;13.09;55.81
46476;BME280;53376;51.114;14.738;2022-09-23T02:05:41;98920.66;;;13.06;56.00
46476;BME280;53376;51.114;14.738;2022-09-23T02:08:21;98916.28;;;13.05;55.88
46476;BME280;53376;51.114;14.738;2022-09-23T02:11:07;98912.88;;;13.03;56.07
46476;BME280;53376;51.114;14.738;2022-09-23T02:13:48;98910.38;;;13.00;55.96
46476;BME280;53376;51.114;14.738;2022-09-23T02:24:09;98908.09;;;12.94;56.17
46476;BME280;53376;51.114;14.738;2022-09-23T02:26:57;98903.69;;;12.93;56.09
46476;BME280;53376;51.114;14.738;2022-09-23T02:29:46;98902.97;;;12.91;56.05
46476;BME280;53376;51.114;14.738;2022-09-23T02:32:30;98905.63;;;12.91;55.99
46476;BME280;53376;51.114;14.738;2022-09-23T02:35:23;98904.84;;;12.89;55.99
46476;BME280;53376;51.114;14.738;2022-09-23T02:38:13;98908.56;;;12.86;56.07
46476;BME280;53376;51.114;14.738;2022-09-23T02:51:33;98909.06;;;12.79;56.08
46476;BME280;53376;51.114;14.738;2022-09-23T02:54:13;98896.78;;;12.76;56.20
46476;BME280;53376;51.114;14.738;2022-09-23T02:56:42;98902.19;;;12.74;56.25
46476;BME280;53376;51.114;14.738;2022-09-23T02:59:18;98897.03;;;12.71;56.24
46476;BME280;53376;51.114;14.738;2022-09-23T03:02:13;98898.00;;;12.70;56.24
46476;BME280;53376;51.114;14.738;2022-09-23T03:05:03;98888.28;;;12.69;56.13
46476;BME280;53376;51.114;14.738;2022-09-23T03:08:04;98891.16;;;12.66;56.40
46476;BME280;53376;51.114;14.738;2022-09-23T03:17:46;98876.47;;;12.59;56.50
46476;BME280;53376;51.114;14.738;2022-09-23T03:20:36;98871.97;;;12.60;56.47
46476;BME280;53376;51.114;14.738;2022-09-23T03:23:18;98872.09;;;12.58;56.37
46476;BME280;53376;51.114;14.738;2022-09-23T03:26:07;98863.31;;;12.56;56.35
46476;BME280;53376;51.114;14.738;2022-09-23T03:28:44;98865.03;;;12.57;56.46
46476;BME280;53376;51.114;14.738;2022-09-23T03:31:25;98866.75;;;12.58;56.36
46476;BME280;53376;51.114;14.738;2022-09-23T03:33:56;98861.41;;;12.58;56.15
46476;BME280;53376;51.114;14.738;2022-09-23T03:47:05;98852.66;;;12.56;56.29
46476;BME280;53376;51.114;14.738;2022-09-23T03:49:47;98847.31;;;12.56;56.20
46476;BME280;53376;51.114;14.738;2022-09-23T03:52:15;98847.41;;;12.54;56.34
46476;BME280;53376;51.114;14.738;2022-09-23T03:54:55;98847.53;;;12.53;56.37
46476;BME280;53376;51.114;14.738;2022-09-23T03:57:22;98848.56;;;12.50;56.34
46476;BME280;53376;51.114;14.738;2022-09-23T04:13:49;98847.22;;;12.43;56.59
46476;BME280;53376;51.114;14.738;2022-09-23T04:16:15;98839.34;;;12.41;56.69
46476;BME280;53376;51.114;14.738;2022-09-23T04:18:49;98843.88;;;12.39;56.45
46476;BME280;53376;51.114;14.738;2022-09-23T04:21:29;98844.84;;;12.38;56.55
46476;BME280;53376;51.114;14.738;2022-09-23T04:24:03;98832.47;;;12.37;56.51
46476;BME280;53376;51.114;14.738;2022-09-23T04:26:45;98833.44;;;12.36;56.48
46476;BME280;53376;51.114;14.738;2022-09-23T04:39:26;98822.16;;;12.31;56.59
46476;BME280;53376;51.114;14.738;2022-09-23T04:42:08;98825.81;;;12.30;56.74
46476;BME280;53376;51.114;14.738;2022-09-23T04:44:48;98827.50;;;12.31;56.78
46476;BME280;53376;51.114;14.738;2022-09-23T04:47:14;98827.50;;;12.31;56.81
46476;BME280;53376;51.114;14.738;2022-09-23T04:49:48;98825.81;;;12.30;56.70
46476;BME280;53376;51.114;14.738;2022-09-23T04:52:32;98826.75;;;12.29;56.64
46476;BME280;53376;51.114;14.738;2022-09-23T05:05:16;98831.50;;;12.24;56.81
46476;BME280;53376;51.114;14.738;2022-09-23T05:07:56;98828.84;;;12.24;56.90
46476;BME280;53376;51.114;14.738;2022-09-23T05:10:36;98828.06;;;12.22;56.92
46476;BME280;53376;51.114;14.738;2022-09-23T05:13:03;98833.56;;;12.19;57.04
46476;BME280;53376;51.114;14.738;2022-09-23T05:15:43;98831.88;;;12.18;57.05
46476;BME280;53376;51.114;14.738;2022-09-23T05:18:09;98838.91;;;12.19;56.95
46476;BME280;53376;51.114;14.738;2022-09-23T05:31:24;98838.06;;;12.18;57.14
46476;BME280;53376;51.114;14.738;2022-09-23T05:34:05;98835.50;;;12.17;57.06
46476;BME280;53376;51.114;14.738;2022-09-23T05:36:45;98834.72;;;12.15;57.13
46476;BME280;53376;51.114;14.738;2022-09-23T05:39:11;98828.63;;;12.13;57.29
46476;BME280;53376;51.114;14.738;2022-09-23T05:41:45;98835.75;;;12.12;57.38
46476;BME280;53376;51.114;14.738;2022-09-23T05:44:30;98835.66;;;12.14;57.16
46476;BME280;53376;51.114;14.738;2022-09-23T05:46:58;98835.66;;;12.14;57.27
46476;BME280;53376;51.114;14.738;2022-09-23T06:00:09;98833.09;;;12.12;57.62
46476;BME280;53376;51.114;14.738;2022-09-23T06:02:52;98831.47;;;12.09;57.49
46476;BME280;53376;51.114;14.738;2022-09-23T06:05:18;98828.97;;;12.06;57.48
46476;BME280;53376;51.114;14.738;2022-09-23T06:07:58;98830.81;;;12.06;57.53
46476;BME280;53376;51.114;14.738;2022-09-23T06:10:24;98825.75;;;12.01;57.53
46476;BME280;53376;51.114;14.738;2022-09-23T06:12:58;98835.66;;;11.99;57.60
46476;BME280;53376;51.114;14.738;2022-09-23T06:26:11;98836.41;;;12.01;57.70
46476;BME280;53376;51.114;14.738;2022-09-23T06:28:52;98834.31;;;12.06;57.72
46476;BME280;53376;51.114;14.738;2022-09-23T06:31:18;98836.91;;;12.08;57.92
46476;BME280;53376;51.114;14.738;2022-09-23T06:33:52;98826.31;;;12.06;57.79
46476;BME280;53376;51.114;14.738;2022-09-23T06:36:44;98834.03;;;12.11;57.70
46476;BME280;53376;51.114;14.738;2022-09-23T06:52:54;98838.06;;;12.18;58.10
46476;BME280;53376;51.114;14.738;2022-09-23T06:55:34;98835.28;;;12.20;58.04
46476;BME280;53376;51.114;14.738;2022-09-23T06:58:00;98829.13;;;12.19;58.06
46476;BME280;53376;51.114;14.738;2022-09-23T07:00:34;98829.97;;;12.20;58.26
46476;BME280;53376;51.114;14.738;2022-09-23T07:03:14;98834.25;;;12.22;58.30
46476;BME280;53376;51.114;14.738;2022-09-23T07:05:40;98837.78;;;12.23;58.28
46476;BME280;53376;51.114;14.738;2022-09-23T07:08:16;98839.56;;;12.22;58.31
46476;BME280;53376;51.114;14.738;2022-09-23T07:18:21;98841.28;;;12.23;58.46
46476;BME280;53376;51.114;14.738;2022-09-23T07:21:09;98834.91;;;12.26;58.57
46476;BME280;53376;51.114;14.738;2022-09-23T07:23:52;98842.84;;;12.28;58.66
46476;BME280;53376;51.114;14.738;2022-09-23T07:26:19;98833.81;;;12.30;58.70
46476;BME280;53376;51.114;14.738;2022-09-23T07:29:00;98832.84;;;12.31;58.59
46476;BME280;53376;51.114;14.738;2022-09-23T07:31:27;98841.59;;;12.33;58.91
46476;BME280;53376;51.114;14.738;2022-09-23T07:45:10;98839.50;;;12.38;59.01
46476;BME280;53376;51.114;14.738;2022-09-23T07:47:50;98848.28;;;12.40;58.88
46476;BME280;53376;51.114;14.738;2022-09-23T07:50:16;98848.06;;;12.44;58.83
46476;BME280;53376;51.114;14.738;2022-09-23T07:52:50;98846.19;;;12.46;58.77
46476;BME280;53376;51.114;14.738;2022-09-23T07:55:31;98844.28;;;12.48;58.74
46476;BME280;53376;51.114;14.738;2022-09-23T07:57:57;98844.09;;;12.51;58.83
46476;BME280;53376;51.114;14.738;2022-09-23T08:14:34;98848.47;;;12.66;58.68
46476;BME280;53376;51.114;14.738;2022-09-23T08:17:00;98840.28;;;12.69;58.67
46476;BME280;53376;51.114;14.738;2022-09-23T08:19:34;98840.09;;;12.72;58.73
46476;BME280;53376;51.114;14.738;2022-09-23T08:22:14;98844.50;;;12.73;58.61
46476;BME280;53376;51.114;14.738;2022-09-23T08:24:40;98841.72;;;12.75;58.38
46476;BME280;53376;51.114;14.738;2022-09-23T08:27:16;98846.00;;;12.78;58.44
46476;BME280;53376;51.114;14.738;2022-09-23T08:40:26;98845.22;;;12.90;58.48
46476;BME280;53376;51.114;14.738;2022-09-23T08:43:18;98845.88;;;12.94;58.79
46476;BME280;53376;51.114;14.738;2022-09-23T08:46:01;98837.59;;;12.98;58.57
46476;BME280;53376;51.114;14.738;2022-09-23T08:48:44;98842.84;;;13.00;58.49
46476;BME280;53376;51.114;14.738;2022-09-23T08:51:24;98840.81;;;13.03;58.50
46476;BME280;53376;51.114;14.738;2022-09-23T09:08:04;98825.53;;;13.20;59.08
46476;BME280;53376;51.114;14.738;2022-09-23T09:10:38;98822.56;;;13.25;59.51
46476;BME280;53376;51.114;14.738;2022-09-23T09:13:28;98823.41;;;13.25;59.56
46476;BME280;53376;51.114;14.738;2022-09-23T09:16:20;98830.28;;;13.29;60.21
46476;BME280;53376;51.114;14.738;2022-09-23T09:33:26;98822.09;;;13.60;60.16
46476;BME280;53376;51.114;14.738;2022-09-23T09:36:19;98823.28;;;13.68;59.88
46476;BME280;53376;51.114;14.738;2022-09-23T09:39:11;98812.97;;;13.77;59.67
46476;BME280;53376;51.114;14.738;2022-09-23T09:41:49;98813.19;;;13.86;60.02
46476;BME280;53376;51.114;14.738;2022-09-23T09:44:37;98802.75;;;13.96;59.94
46476;BME280;53376;51.114;14.738;2022-09-23T09:47:24;98802.97;;;14.06;59.77
46476;BME280;53376;51.114;14.738;2022-09-23T10:00:44;98783.63;;;14.67;58.33
46476;BME280;53376;51.114;14.738;2022-09-23T10:03:32;98784.34;;;14.82;58.27
46476;BME280;53376;51.114;14.738;2022-09-23T10:06:15;98769.94;;;14.96;57.86
46476;BME280;53376;51.114;14.738;2022-09-23T10:09:13;98773.13;;;15.14;57.85
46476;BME280;53376;51.114;14.738;2022-09-23T10:12:09;98762.97;;;15.30;57.66
46476;BME280;53376;51.114;14.738;2022-09-23T10:25:42;98762.28;;;16.11;55.58
46476;BME280;53376;51.114;14.738;2022-09-23T10:28:43;98762.19;;;16.24;54.82
46476;BME280;53376;51.114;14.738;2022-09-23T10:31:25;98762.91;;;16.26;53.82
46476;BME280;53376;51.114;14.738;2022-09-23T10:34:22;98760.47;;;16.23;53.30
46476;BME280;53376;51.114;14.738;2022-09-23T10:37:02;98770.59;;;16.19;52.48
46476;BME280;53376;51.114;14.738;2022-09-23T10:53:56;98755.44;;;15.95;53.60
46476;BME280;53376;51.114;14.738;2022-09-23T10:56:44;98752.97;;;15.92;53.41
46476;BME280;53376;51.114;14.738;2022-09-23T10:59:51;98756.88;;;15.88;53.79
46476;BME280;53376;51.114;14.738;2022-09-23T11:02:49;98758.81;;;15.86;53.87
46476;BME280;53376;51.114;14.738;2022-09-23T11:05:48;98751.03;;;15.83;54.02
46476;BME280;53376;51.114;14.738;2022-09-23T11:08:42;98736.84;;;15.81;54.23
46476;BME280;53376;51.114;14.738;2022-09-23T11:22:08;98722.31;;;16.19;53.63
46476;BME280;53376;51.114;14.738;2022-09-23T11:25:17;98713.19;;;16.33;52.56
46476;BME280;53376;51.114;14.738;2022-09-23T11:28:19;98717.69;;;16.44;52.02
46476;BME280;53376;51.114;14.738;2022-09-23T11:31:31;98719.66;;;16.53;52.02
46476;BME280;53376;51.114;14.738;2022-09-23T11:47:55;98683.38;;;16.93;50.32
46476;BME280;53376;51.114;14.738;2022-09-23T11:50:45;98687.13;;;17.02;49.71
46476;BME280;53376;51.114;14.738;2022-09-23T11:53:26;98678.44;;;17.10;48.93
46476;BME280;53376;51.114;14.738;2022-09-23T11:56:17;98671.44;;;17.18;49.05
46476;BME280;53376;51.114;14.738;2022-09-23T11:59:14;98667.88;;;17.29;49.83
46476;BME280;53376;51.114;14.738;2022-09-23T12:02:19;98671.31;;;17.41;49.57
46476;BME280;53376;51.114;14.738;2022-09-23T12:15:32;98671.91;;;17.66;49.27
46476;BME280;53376;51.114;14.738;2022-09-23T12:18:39;98663.41;;;17.61;49.26
46476;BME280;53376;51.114;14.738;2022-09-23T12:21:50;98662.97;;;17.55;49.06
46476;BME280;53376;51.114;14.738;2022-09-23T12:24:46;98658.84;;;17.51;48.71
46476;BME280;53376;51.114;14.738;2022-09-23T12:27:35;98657.28;;;17.49;48.68
46476;BME280;53376;51.114;14.738;2022-09-23T12:40:32;98639.88;;;17.74;48.85
46476;BME280;53376;51.114;14.738;2022-09-23T12:43:17;98642.47;;;17.85;49.07
46476;BME280;53376;51.114;14.738;2022-09-23T12:46:20;98639.97;;;17.94;46.40
46476;BME280;53376;51.114;14.738;2022-09-23T12:48:59;98630.16;;;18.04;46.75
46476;BME280;53376;51.114;14.738;2022-09-23T12:52:12;98629.06;;;18.16;46.94
46476;BME280;53376;51.114;14.738;2022-09-23T13:08:48;98618.72;;;18.82;45.64
46476;BME280;53376;51.114;14.738;2022-09-23T13:11:30;98610.69;;;19.01;45.57
46476;BME280;53376;51.114;14.738;2022-09-23T13:14:02;98608.72;;;19.13;45.79
46476;BME280;53376;51.114;14.738;2022-09-23T13:16:44;98608.66;;;19.43;44.37
46476;BME280;53376;51.114;14.738;2022-09-23T13:35:48;98581.47;;;19.84;43.08
46476;BME280;53376;51.114;14.738;2022-09-23T13:38:25;98584.34;;;19.72;43.97
46476;BME280;53376;51.114;14.738;2022-09-23T13:41:11;98572.44;;;19.65;44.15
46476;BME280;53376;51.114;14.738;2022-09-23T13:43:49;98566.25;;;19.55;45.04
46476;BME280;53376;51.114;14.738;2022-09-23T13:46:34;98575.34;;;19.44;45.12
46476;BME280;53376;51.114;14.738;2022-09-23T13:59:44;98558.53;;;19.03;44.58
46476;BME280;53376;51.114;14.738;2022-09-23T14:02:24;98565.34;;;18.97;45.05
46476;BME280;53376;51.114;14.738;2022-09-23T14:05:10;98566.03;;;18.89;45.27
46476;BME280;53376;51.114;14.738;2022-09-23T14:07:44;98564.78;;;18.83;45.17
46476;BME280;53376;51.114;14.738;2022-09-23T14:10:24;98564.47;;;18.77;44.95
46476;BME280;53376;51.114;14.738;2022-09-23T14:12:53;98565.75;;;18.73;45.24
46476;BME280;53376;51.114;14.738;2022-09-23T14:26:28;98546.06;;;19.01;45.41
46476;BME280;53376;51.114;14.738;2022-09-23T14:29:14;98534.94;;;19.81;43.58
46476;BME280;53376;51.114;14.738;2022-09-23T14:31:53;98529.41;;;20.57;42.08
46476;BME280;53376;51.114;14.738;2022-09-23T14:34:39;98526.28;;;21.24;41.56
46476;BME280;53376;51.114;14.738;2022-09-23T14:37:24;98522.59;;;21.86;40.98
46476;BME280;53376;51.114;14.738;2022-09-23T14:40:14;98528.16;;;22.35;39.82
46476;BME280;53376;51.114;14.738;2022-09-23T14:42:57;98523.16;;;22.57;38.26
46476;BME280;53376;51.114;14.738;2022-09-23T14:56:18;98511.06;;;21.84;38.93
46476;BME280;53376;51.114;14.738;2022-09-23T14:59:01;98517.88;;;21.88;39.47
46476;BME280;53376;51.114;14.738;2022-09-23T15:01:37;98509.50;;;21.73;39.69
46476;BME280;53376;51.114;14.738;2022-09-23T15:04:31;98515.38;;;21.60;40.40
46476;BME280;53376;51.114;14.738;2022-09-23T15:07:13;98511.53;;;21.45;41.21
46476;BME280;53376;51.114;14.738;2022-09-23T15:20:26;98512.56;;;20.27;43.58
46476;BME280;53376;51.114;14.738;2022-09-23T15:23:31;98515.69;;;20.04;43.74
46476;BME280;53376;51.114;14.738;2022-09-23T15:26:10;98514.50;;;19.89;44.20
46476;BME280;53376;51.114;14.738;2022-09-23T15:28:52;98507.56;;;19.76;44.53
46476;BME280;53376;51.114;14.738;2022-09-23T15:31:28;98505.75;;;19.67;44.69
46476;BME280;53376;51.114;14.738;2022-09-23T15:34:09;98495.16;;;19.56;44.52
46476;BME280;53376;51.114;14.738;2022-09-23T15:46:53;98492.13;;;19.31;45.08
46476;BME280;53376;51.114;14.738;2022-09-23T15:49:34;98494.84;;;19.31;46.28
46476;BME280;53376;51.114;14.738;2022-09-23T15:52:16;98499.34;;;19.30;46.48
46476;BME280;53376;51.114;14.738;2022-09-23T15:54:42;98497.69;;;19.29;47.02
46476;BME280;53376;51.114;14.738;2022-09-23T15:57:16;98498.81;;;19.27;46.24
46476;BME280;53376;51.114;14.738;2022-09-23T15:59:56;98496.41;;;19.24;46.15
46476;BME280;53376;51.114;14.738;2022-09-23T16:02:24;98489.63;;;19.20;46.11
46476;BME280;53376;51.114;14.738;2022-09-23T16:15:33;98477.03;;;18.81;47.36
46476;BME280;53376;51.114;14.738;2022-09-23T16:18:16;98480.59;;;18.72;47.91
46476;BME280;53376;51.114;14.738;2022-09-23T16:20:44;98485.84;;;18.63;47.75
46476;BME280;53376;51.114;14.738;2022-09-23T16:23:26;98471.41;;;18.55;48.10
46476;BME280;53376;51.114;14.738;2022-09-23T16:26:04;98478.47;;;18.46;48.83
46476;BME280;53376;51.114;14.738;2022-09-23T16:28:46;98473.81;;;18.38;48.74
46476;BME280;53376;51.114;14.738;2022-09-23T16:41:31;98480.56;;;18.03;49.48
46476;BME280;53376;51.114;14.738;2022-09-23T16:44:11;98479.44;;;17.96;49.68
46476;BME280;53376;51.114;14.738;2022-09-23T16:46:51;98481.78;;;17.89;50.03
46476;BME280;53376;51.114;14.738;2022-09-23T16:49:17;98482.31;;;17.83;50.24
46476;BME280;53376;51.114;14.738;2022-09-23T16:51:51;98485.69;;;17.75;50.01
46476;BME280;53376;51.114;14.738;2022-09-23T17:08:28;98467.72;;;17.35;51.04
46476;BME280;53376;51.114;14.738;2022-09-23T17:11:08;98471.81;;;17.29;51.16
46476;BME280;53376;51.114;14.738;2022-09-23T17:13:48;98469.06;;;17.19;50.92
46476;BME280;53376;51.114;14.738;2022-09-23T17:16:23;98468.63;;;17.14;50.79
46476;BME280;53376;51.114;14.738;2022-09-23T17:19:06;98461.94;;;17.08;50.85
46476;BME280;53376;51.114;14.738;2022-09-23T17:21:34;98463.91;;;17.06;51.10
46476;BME280;53376;51.114;14.738;2022-09-23T17:24:16;98465.03;;;17.04;51.05
46476;BME280;53376;51.114;14.738;2022-09-23T17:33:40;98458.13;;;16.90;51.06
46476;BME280;53376;51.114;14.738;2022-09-23T17:36:20;98458.53;;;16.85;51.35
46476;BME280;53376;51.114;14.738;2022-09-23T17:38:47;98454.28;;;16.83;51.17
46476;BME280;53376;51.114;14.738;2022-09-23T17:41:31;98457.22;;;16.80;51.47
46476;BME280;53376;51.114;14.738;2022-09-23T17:43:57;98463.72;;;16.77;51.38
46476;BME280;53376;51.114;14.738;2022-09-23T17:46:37;98458.59;;;16.74;51.18
46476;BME280;53376;51.114;14.738;2022-09-23T17:49:03;98458.88;;;16.71;51.28
46476;BME280;53376;51.114;14.738;2022-09-23T18:01:53;98461.03;;;16.56;51.34
46476;BME280;53376;51.114;14.738;2022-09-23T18:04:33;98466.63;;;16.53;51.28
46476;BME280;53376;51.114;14.738;2022-09-23T18:07:13;98472.28;;;16.50;51.46
46476;BME280;53376;51.114;14.738;2022-09-23T18:09:39;98465.34;;;16.47;51.40
46476;BME280;53376;51.114;14.738;2022-09-23T18:12:13;98469.97;;;16.45;51.49
46476;BME280;53376;51.114;14.738;2022-09-23T18:28:51;98461.63;;;16.27;51.52
46476;BME280;53376;51.114;14.738;2022-09-23T18:31:33;98467.13;;;16.25;51.49
46476;BME280;53376;51.114;14.738;2022-09-23T18:34:14;98468.38;;;16.21;51.57
46476;BME280;53376;51.114;14.738;2022-09-23T18:36:42;98471.16;;;16.20;51.59
46476;BME280;53376;51.114;14.738;2022-09-23T18:39:22;98456.16;;;16.17;51.52
46476;BME280;53376;51.114;14.738;2022-09-23T18:41:48;98461.81;;;16.14;51.62
46476;BME280;53376;51.114;14.738;2022-09-23T18:54:38;98456.47;;;16.03;51.84
46476;BME280;53376;51.114;14.738;2022-09-23T18:57:18;98457.44;;;16.02;51.92
46476;BME280;53376;51.114;14.738;2022-09-23T18:59:58;98459.41;;;16.00;51.98
46476;BME280;53376;51.114;14.738;2022-09-23T19:02:39;98451.63;;;15.97;52.20
46476;BME280;53376;51.114;14.738;2022-09-23T19:05:19;98449.91;;;15.95;52.14
46476;BME280;53376;51.114;14.738;2022-09-23T19:07:45;98456.25;;;15.94;52.02
46476;BME280;53376;51.114;14.738;2022-09-23T19:20:50;98458.97;;;15.83;52.04
46476;BME280;53376;51.114;14.738;2022-09-23T19:23:32;98462.59;;;15.82;51.90
46476;BME280;53376;51.114;14.738;2022-09-23T19:26:14;98463.44;;;15.83;51.93
46476;BME280;53376;51.114;14.738;2022-09-23T19:28:46;98460.66;;;15.84;52.09
46476;BME280;53376;51.114;14.738;2022-09-23T19:31:29;98463.34;;;15.84;51.82
46476;BME280;53376;51.114;14.738;2022-09-23T19:33:58;98458.81;;;15.85;52.00
46476;BME280;53376;51.114;14.738;2022-09-23T19:47:25;98460.88;;;15.81;51.57
46476;BME280;53376;51.114;14.738;2022-09-23T19:50:05;98460.03;;;15.80;51.39
46476;BME280;53376;51.114;14.738;2022-09-23T19:52:33;98459.16;;;15.80;51.13
46476;BME280;53376;51.114;14.738;2022-09-23T19:55:13;98458.31;;;15.79;51.30
46476;BME280;53376;51.114;14.738;2022-09-23T19:57:39;98459.16;;;15.80;51.15
46476;BME280;53376;51.114;14.738;2022-09-23T20:00:13;98448.44;;;15.80;50.86
46476;BME280;53376;51.114;14.738;2022-09-23T20:02:59;98459.16;;;15.80;50.86
46476;BME280;53376;51.114;14.738;2022-09-23T20:15:47;98454.44;;;15.72;50.74
46476;BME280;53376;51.114;14.738;2022-09-23T20:18:29;98450.91;;;15.72;51.04
46476;BME280;53376;51.114;14.738;2022-09-23T20:21:11;98449.22;;;15.71;50.84
46476;BME280;53376;51.114;14.738;2022-09-23T20:23:39;98449.22;;;15.71;50.79
46476;BME280;53376;51.114;14.738;2022-09-23T20:26:20;98444.69;;;15.71;50.74
46476;BME280;53376;51.114;14.738;2022-09-23T20:28:46;98444.81;;;15.70;51.02
46476;BME280;53376;51.114;14.738;2022-09-23T20:41:58;98426.81;;;15.60;50.54
46476;BME280;53376;51.114;14.738;2022-09-23T20:44:38;98430.47;;;15.59;50.60
46476;BME280;53376;51.114;14.738;2022-09-23T20:47:05;98427.91;;;15.58;50.67
46476;BME280;53376;51.114;14.738;2022-09-23T20:49:45;98425.22;;;15.58;50.69
46476;BME280;53376;51.114;14.738;2022-09-23T20:52:13;98436.06;;;15.56;50.93
46476;BME280;53376;51.114;14.738;2022-09-23T21:08:52;98418.09;;;15.47;50.84
46476;BME280;53376;51.114;14.738;2022-09-23T21:11:33;98416.59;;;15.43;50.88
46476;BME280;53376;51.114;14.738;2022-09-23T21:14:13;98417.56;;;15.42;50.89
46476;BME280;53376;51.114;14.738;2022-09-23T21:16:39;98407.13;;;15.39;50.93
46476;BME280;53376;51.114;14.738;2022-09-23T21:19:13;98411.66;;;15.38;50.97
46476;BME280;53376;51.114;14.738;2022-09-23T21:21:53;98411.75;;;15.37;50.98
46476;BME280;53376;51.114;14.738;2022-09-23T21:24:22;98420.88;;;15.34;50.76
46476;BME280;53376;51.114;14.738;2022-09-23T21:37:02;98407.84;;;15.29;50.31
46476;BME280;53376;51.114;14.738;2022-09-23T21:39:44;98408.94;;;15.27;50.36
46476;BME280;53376;51.114;14.738;2022-09-23T21:42:10;98404.69;;;15.24;49.94
46476;BME280;53376;51.114;14.738;2022-09-23T21:44:50;98410.06;;;15.24;50.07
46476;BME280;53376;51.114;14.738;2022-09-23T21:47:16;98409.22;;;15.24;49.98
46476;BME280;53376;51.114;14.738;2022-09-23T22:03:31;98408.59;;;15.20;50.11
46476;BME280;53376;51.114;14.738;2022-09-23T22:06:12;98401.53;;;15.19;50.41
46476;BME280;53376;51.114;14.738;2022-09-23T22:08:42;98387.31;;;15.19;50.42
46476;BME280;53376;51.114;14.738;2022-09-23T22:11:23;98389.38;;;15.15;50.38
46476;BME280;53376;51.114;14.738;2022-09-23T22:13:51;98378.69;;;15.15;50.31
46476;BME280;53376;51.114;14.738;2022-09-23T22:30:28;98381.38;;;15.04;50.67
46476;BME280;53376;51.114;14.738;2022-09-23T22:32:55;98381.38;;;15.04;50.78
46476;BME280;53376;51.114;14.738;2022-09-23T22:35:35;98379.88;;;14.99;50.70
46476;BME280;53376;51.114;14.738;2022-09-23T22:38:01;98376.25;;;15.01;50.91
46476;BME280;53376;51.114;14.738;2022-09-23T22:40:35;98381.59;;;15.01;50.82
46476;BME280;53376;51.114;14.738;2022-09-23T22:43:15;98372.59;;;15.02;50.63
46476;BME280;53376;51.114;14.738;2022-09-23T22:55:58;98373.44;;;14.91;50.43
46476;BME280;53376;51.114;14.738;2022-09-23T22:58:38;98365.53;;;14.89;50.59
46476;BME280;53376;51.114;14.738;2022-09-23T23:01:18;98366.50;;;14.88;50.60
46476;BME280;53376;51.114;14.738;2022-09-23T23:03:44;98361.41;;;14.85;50.68
46476;BME280;53376;51.114;14.738;2022-09-23T23:06:18;98360.41;;;14.86;50.74
46476;BME280;53376;51.114;14.738;2022-09-23T23:08:58;98361.41;;;14.85;50.61
46476;BME280;53376;51.114;14.738;2022-09-23T23:21:41;98349.50;;;14.78;50.55
46476;BME280;53376;51.114;14.738;2022-09-23T23:24:22;98354.09;;;14.76;50.71
46476;BME280;53376;51.114;14.738;2022-09-23T23:27:02;98348.00;;;14.74;50.63
46476;BME280;53376;51.114;14.738;2022-09-23T23:29:28;98345.59;;;14.71;50.53
46476;BME280;53376;51.114;14.738;2022-09-23T23:32:02;98336.81;;;14.69;50.76
46476;BME280;53376;51.114;14.738;2022-09-23T23:34:43;98348.50;;;14.67;50.88
46476;BME280;53376;51.114;14.738;2022-09-23T23:37:11;98346.81;;;14.66;50.83
46476;BME280;53376;51.114;14.738;2022-09-23T23:50:22;98331.22;;;14.60;50.92
46476;BME280;53376;51.114;14.738;2022-09-23T23:53:04;98334.84;;;14.59;50.91
46476;BME280;53376;51.114;14.738;2022-09-23T23:55:31;98332.41;;;14.56;50.87
46476;BME280;53376;51.114;14.738;2022-09-23T23:58:16;98335.34;;;14.53;50.96
